Etusivu
METAR-TAF:

METAR-TAF

Lentoasemat :

Tuscaloosa, Alabama, Yhdysvallat

Leveyspiiri: 33-12-43N, Pituuspiiri: 087-36-57W, korkeus merenpinnasta: 52 m

Tämänhetkinen sää

Tämä raportti tehtiin 25 minuuttia sitten, kello 08.53 UTC
tyyntä
Lämpötila 2°C
Kosteus 80%
Ilmanpaine 1032 hPa
Näkyvyys: 14.5 km
selkeää

METAR: KTCL 080853Z AUTO 00000KT 9SM CLR 02/M01 A3048 RMK AO2 SLP322 T00221006 51005

Aika: 03:18 (09:18 UTC)

Sääennuste

Tämä raportti tehtiin 3 tuntia ja 58 minuuttia sitten, kello 05.20 UTC
Ennuste voimassa 08. päivästä klo 06 UTC - 09. päivään klo 06 UTC
Tuuli 3 kn koillisesta
Näkyvyys: 10 km
selkeää
From 08. päivästä klo 1600 UTC
Tuuli 5 kn etelästä
Näkyvyys: 10 km
selkeää
From 09. päivästä klo 0000 UTC
Tuuli kn pohjoisesta
Näkyvyys: 10 km
selkeää

TAF: KTCL 080520Z 0806/0906 05003KT P6SM SKC FM081600 19005KT P6SM SKC FM090000 00000KT P6SM SKC

Säähavainnot ja -ennusteet yli 4000 lentoasemalta (METAR- ja TAF-raportit).

Käytössä olevat sääasemat on merkitty karttaan keltaisilla ja punaisilla pisteillä.

Aseta hiiri pisteen päälle nähdäksesi sääaseman nimen.

Klikkaa sitten nähdäksesi säähavainnot ja -ennusteet.

Kartan vaihtaminen: klikkaa mustalla rastilla varustettuja vihreitä pisteitä, niin voit zoomata sisään; viivalla varustettua vihreää pistettä, niin voit zoomata ulos tai vihreitä nuolia, niin pääset viereisille kartoille.


METAR-TAF: